This is the latest recevied weather packets stored in our database for station/object HS5NMF. If no packets are shown the sender has not sent any weather packets the latest 1 day(s).
| Time | Temp. | Humidity | Pressure | Rain* | Wind** | Luminosity | Snow |
|---|---|---|---|---|---|---|---|
| 1777990614 | 28.33° C | 80% | 978 hPa | - | 0 m/s | 0 W/m² | - |
| 1777990287 | 28.33° C | 81% | 978 hPa | - | 0 m/s | 0 W/m² | - |
| 1777989967 | 28.89° C | 81% | 978 hPa | - | 0 m/s | 0 W/m² | - |
| 1777989641 | 28.33° C | 82% | 978 hPa | - | 0 m/s | 0 W/m² | - |
| 1777989319 | 28.33° C | 81% | 978 hPa | - | 0 m/s | 0 W/m² | - |
| 1777989319 | 28.33° C | 81% | 978 hPa | - | 0 m/s | 0 W/m² | - |
| 1777988994 | 28.33° C | 83% | 978 hPa | - | 0 m/s | 0 W/m² | - |
| 1777988671 | 28.33° C | 86% | 978 hPa | - | 0 m/s | 0 W/m² | - |
| 1777988347 | 28.33° C | 86% | 978 hPa | - | 0 m/s | 0 W/m² | - |
| 1777988026 | 28.33° C | 85% | 977 hPa | - | 0 m/s | 0 W/m² | - |
| 1777987699 | 28.33° C | 84% | 978 hPa | - | 0 m/s | 0 W/m² | - |
| 1777987376 | 28.89° C | 81% | 978 hPa | - | 0 m/s | 0 W/m² | - |
| 1777987376 | 28.89° C | 81% | 978 hPa | - | 0 m/s | 0 W/m² | - |
| 1777987053 | 29.44° C | 78% | 978 hPa | - | 0 m/s | 0 W/m² | - |
| 1777986736 | 29.44° C | 75% | 977 hPa | - | 0 m/s | 0 W/m² | - |
| 1777986726 | 29.44° C | 75% | 977 hPa | - | 0 m/s | 0 W/m² | - |
| 1777986404 | 30° C | 72% | 977 hPa | - | 0 m/s | 0 W/m² | - |
| 1777986084 | 29.44° C | 74% | 977 hPa | - | 0 m/s | 0 W/m² | - |
| 1777985761 | 28.89° C | 76% | 977 hPa | - | 0 m/s | 0 W/m² | - |
| 1777985444 | 29.44° C | 75% | 977 hPa | - | 0 m/s | 0 W/m² | - |
| 1777985437 | 29.44° C | 75% | 977 hPa | - | 0 m/s | 0 W/m² | - |
| 1777985113 | 30° C | 72% | 977 hPa | - | 0 m/s | 0 W/m² | - |
| 1777984790 | 29.44° C | 71% | 977 hPa | - | 0 m/s | 0 W/m² | - |
| 1777984466 | 29.44° C | 73% | 977 hPa | - | 0 m/s | 0 W/m² | - |
| 1777984141 | 29.44° C | 72% | 977 hPa | - | 0 m/s | 0 W/m² | - |
* Rain since midnight (hover to see other rain measurements)
** Current wind speed in m/s (hover to see current wind gust speed)